ITY108 LIMC-LMML
Flight info
| Callsign | ITY108 |
|---|---|
| Flight time | N/A |
| Altitude | 39000 |
| Route | ROBAS DCT EKPAL DCT TINKU DCT ROSKI DCT TURMO DCT PAL DCT ALOKU DCT MARON L12 GZO |
| Aircraft | A339/H-SADE1E2E3GHIJ3J5M1P2RWXY/LB2D1 |
Departure
| Time | 2026-05-01 14:04 |
|---|---|
| Airport | Milan Malpensa International Airport (LIMC) |
Arrival
| Time | N/A |
|---|---|
| Airport | Malta International Airport (LMML) |
| Time | Latitude | Longitude | Altitude | Speed | Heading |
|---|---|---|---|---|---|
| 2026-05-01 13:54 | 45.62535 | 8.71958 | 784 ft | 0 kts | 78° |
| 2026-05-01 13:55 | 45.62534 | 8.71953 | 785 ft | 2 kts | 78° |
| 2026-05-01 13:55 | 45.62531 | 8.71932 | 784 ft | 2 kts | 78° |
| 2026-05-01 13:55 | 45.62529 | 8.71916 | 784 ft | 0 kts | 78° |
| 2026-05-01 13:56 | 45.62526 | 8.71899 | 784 ft | 2 kts | 57° |
| 2026-05-01 13:56 | 45.62515 | 8.71883 | 784 ft | 2 kts | 29° |
| 2026-05-01 13:56 | 45.62501 | 8.71876 | 785 ft | 2 kts | 3° |
| 2026-05-01 13:56 | 45.62492 | 8.71876 | 784 ft | 0 kts | 347° |
| 2026-05-01 13:57 | 45.62487 | 8.71878 | 784 ft | 0 kts | 348° |
| 2026-05-01 13:58 | 45.62488 | 8.71878 | 784 ft | 0 kts | 348° |
| 2026-05-01 13:59 | 45.62497 | 8.71875 | 784 ft | 4 kts | 351° |
| 2026-05-01 13:59 | 45.62550 | 8.71862 | 784 ft | 11 kts | 351° |
| 2026-05-01 13:59 | 45.62649 | 8.71835 | 784 ft | 17 kts | 348° |
| 2026-05-01 14:00 | 45.62786 | 8.71796 | 784 ft | 22 kts | 349° |
| 2026-05-01 14:00 | 45.62955 | 8.71750 | 784 ft | 26 kts | 348° |
| 2026-05-01 14:00 | 45.63144 | 8.71698 | 784 ft | 28 kts | 349° |
| 2026-05-01 14:00 | 45.63289 | 8.71707 | 784 ft | 18 kts | 54° |
| 2026-05-01 14:01 | 45.63304 | 8.71860 | 784 ft | 14 kts | 70° |
| 2026-05-01 14:01 | 45.63372 | 8.71928 | 784 ft | 13 kts | 2° |
| 2026-05-01 14:01 | 45.63473 | 8.71916 | 784 ft | 15 kts | 350° |
| 2026-05-01 14:01 | 45.63589 | 8.71888 | 784 ft | 18 kts | 351° |
| 2026-05-01 14:02 | 45.63723 | 8.71853 | 784 ft | 20 kts | 349° |
| 2026-05-01 14:02 | 45.63871 | 8.71810 | 784 ft | 22 kts | 349° |
| 2026-05-01 14:02 | 45.64029 | 8.71764 | 784 ft | 24 kts | 348° |
| 2026-05-01 14:02 | 45.64198 | 8.71718 | 784 ft | 25 kts | 350° |
| 2026-05-01 14:03 | 45.64372 | 8.71671 | 784 ft | 24 kts | 349° |
| 2026-05-01 14:03 | 45.64481 | 8.71761 | 784 ft | 19 kts | 83° |
| 2026-05-01 14:03 | 45.64423 | 8.71895 | 784 ft | 17 kts | 162° |
| 2026-05-01 14:03 | 45.64255 | 8.71951 | 784 ft | 52 kts | 168° |
| 2026-05-01 14:04 | 45.63629 | 8.72125 | 785 ft | 127 kts | 169° |
| 2026-05-01 14:04 | 45.62582 | 8.72421 | 1013 ft | 167 kts | 169° |
| 2026-05-01 14:04 | 45.61455 | 8.72727 | 1774 ft | 168 kts | 173° |
| 2026-05-01 14:04 | 45.60685 | 8.72823 | 2288 ft | 168 kts | 178° |
| 2026-05-01 14:05 | 45.59127 | 8.72931 | 2981 ft | 177 kts | 178° |
| 2026-05-01 14:05 | 45.57846 | 8.73019 | 3354 ft | 194 kts | 178° |
| 2026-05-01 14:05 | 45.56434 | 8.73130 | 3732 ft | 210 kts | 177° |
| 2026-05-01 14:05 | 45.54916 | 8.73260 | 4095 ft | 229 kts | 177° |
| 2026-05-01 14:06 | 45.53287 | 8.73406 | 4500 ft | 246 kts | 177° |
| 2026-05-01 14:06 | 45.51515 | 8.73529 | 5001 ft | 259 kts | 180° |
| 2026-05-01 14:06 | 45.49700 | 8.73516 | 5692 ft | 263 kts | 181° |
| 2026-05-01 14:06 | 45.47855 | 8.73468 | 6252 ft | 274 kts | 181° |
| 2026-05-01 14:07 | 45.46562 | 8.73432 | 6710 ft | 278 kts | 181° |
| 2026-05-01 14:07 | 45.44623 | 8.73378 | 7468 ft | 281 kts | 181° |
| 2026-05-01 14:07 | 45.42675 | 8.73324 | 8212 ft | 284 kts | 182° |
| 2026-05-01 14:08 | 45.38720 | 8.73212 | 9662 ft | 290 kts | 182° |
| 2026-05-01 14:08 | 45.36694 | 8.73150 | 10385 ft | 293 kts | 182° |
| 2026-05-01 14:08 | 45.34661 | 8.73083 | 10960 ft | 301 kts | 182° |
| 2026-05-01 14:08 | 45.32501 | 8.73007 | 11293 ft | 319 kts | 182° |
| 2026-05-01 14:09 | 45.30238 | 8.72922 | 11604 ft | 336 kts | 182° |
| 2026-05-01 14:09 | 45.27845 | 8.72827 | 11909 ft | 353 kts | 182° |
| 2026-05-01 14:09 | 45.25338 | 8.72720 | 12201 ft | 370 kts | 182° |
| 2026-05-01 14:09 | 45.22730 | 8.72603 | 12587 ft | 383 kts | 183° |
| 2026-05-01 14:10 | 45.20027 | 8.72476 | 13234 ft | 388 kts | 183° |
| 2026-05-01 14:10 | 45.17331 | 8.72340 | 13932 ft | 391 kts | 183° |
| 2026-05-01 14:10 | 45.14583 | 8.72566 | 14572 ft | 398 kts | 167° |
| 2026-05-01 14:10 | 45.12089 | 8.74206 | 15183 ft | 405 kts | 144° |
| 2026-05-01 14:11 | 45.10168 | 8.77120 | 15832 ft | 410 kts | 126° |
| 2026-05-01 14:11 | 45.06274 | 8.83037 | 17016 ft | 419 kts | 140° |
| 2026-05-01 14:11 | 45.04050 | 8.85758 | 17591 ft | 425 kts | 140° |
| 2026-05-01 14:12 | 45.01815 | 8.88547 | 18161 ft | 431 kts | 139° |
| 2026-05-01 14:12 | 44.99589 | 8.91409 | 18721 ft | 436 kts | 138° |
| 2026-05-01 14:12 | 44.97354 | 8.94349 | 19275 ft | 442 kts | 137° |
| 2026-05-01 14:12 | 44.95131 | 8.97313 | 19820 ft | 447 kts | 137° |
| 2026-05-01 14:13 | 44.92842 | 9.00392 | 20372 ft | 451 kts | 136° |
| 2026-05-01 14:13 | 44.91335 | 9.02426 | 20726 ft | 454 kts | 136° |
| 2026-05-01 14:13 | 44.88284 | 9.06551 | 21416 ft | 460 kts | 136° |
| 2026-05-01 14:13 | 44.85966 | 9.09686 | 21914 ft | 464 kts | 136° |
| 2026-05-01 14:14 | 44.83638 | 9.12832 | 22395 ft | 468 kts | 136° |
| 2026-05-01 14:14 | 44.81276 | 9.16021 | 22869 ft | 472 kts | 136° |
| 2026-05-01 14:14 | 44.78919 | 9.19201 | 23329 ft | 476 kts | 136° |
| 2026-05-01 14:14 | 44.76499 | 9.22462 | 23784 ft | 479 kts | 136° |
| 2026-05-01 14:15 | 44.74113 | 9.25672 | 24215 ft | 483 kts | 136° |
| 2026-05-01 14:15 | 44.71665 | 9.28963 | 24646 ft | 486 kts | 136° |
| 2026-05-01 14:15 | 44.69228 | 9.32234 | 25053 ft | 490 kts | 136° |
| 2026-05-01 14:15 | 44.66765 | 9.35537 | 25453 ft | 493 kts | 136° |
| 2026-05-01 14:16 | 44.64293 | 9.38847 | 25834 ft | 496 kts | 136° |
| 2026-05-01 14:16 | 44.61731 | 9.42274 | 26212 ft | 500 kts | 136° |
| 2026-05-01 14:16 | 44.59215 | 9.45635 | 26568 ft | 503 kts | 136° |
| 2026-05-01 14:16 | 44.56678 | 9.49019 | 26921 ft | 506 kts | 136° |
| 2026-05-01 14:17 | 44.54127 | 9.52418 | 27273 ft | 509 kts | 136° |
| 2026-05-01 14:17 | 44.51558 | 9.55836 | 27643 ft | 512 kts | 136° |
| 2026-05-01 14:17 | 44.48952 | 9.59299 | 28146 ft | 511 kts | 136° |
| 2026-05-01 14:17 | 44.46382 | 9.62712 | 28665 ft | 509 kts | 136° |
| 2026-05-01 14:18 | 44.43848 | 9.66072 | 29106 ft | 509 kts | 137° |
| 2026-05-01 14:18 | 44.41251 | 9.69511 | 29510 ft | 510 kts | 137° |
| 2026-05-01 14:18 | 44.38676 | 9.72915 | 29912 ft | 511 kts | 137° |
| 2026-05-01 14:18 | 44.36958 | 9.75183 | 30190 ft | 511 kts | 137° |
| 2026-05-01 14:19 | 44.33524 | 9.79713 | 30762 ft | 510 kts | 137° |
| 2026-05-01 14:19 | 44.30975 | 9.83072 | 31180 ft | 510 kts | 137° |
| 2026-05-01 14:19 | 44.28407 | 9.86451 | 31594 ft | 509 kts | 137° |
| 2026-05-01 14:19 | 44.25831 | 9.89836 | 32008 ft | 509 kts | 137° |
| 2026-05-01 14:20 | 44.23231 | 9.93247 | 32417 ft | 508 kts | 137° |
| 2026-05-01 14:20 | 44.18110 | 9.99955 | 33161 ft | 508 kts | 137° |
| 2026-05-01 14:20 | 44.15538 | 10.03316 | 33536 ft | 508 kts | 137° |
| 2026-05-01 14:21 | 44.12981 | 10.06654 | 33895 ft | 507 kts | 137° |
| 2026-05-01 14:21 | 44.10401 | 10.10020 | 34245 ft | 507 kts | 137° |
| 2026-05-01 14:21 | 44.07820 | 10.13380 | 34610 ft | 507 kts | 136° |
| 2026-05-01 14:22 | 44.02692 | 10.20049 | 35352 ft | 505 kts | 137° |
| 2026-05-01 14:22 | 44.00147 | 10.23351 | 35709 ft | 504 kts | 137° |
| 2026-05-01 14:22 | 43.97573 | 10.26686 | 36043 ft | 503 kts | 136° |
| 2026-05-01 14:22 | 43.95012 | 10.30000 | 36363 ft | 502 kts | 136° |
| 2026-05-01 14:23 | 43.92464 | 10.33297 | 36666 ft | 502 kts | 137° |
| 2026-05-01 14:23 | 43.89943 | 10.36552 | 36943 ft | 502 kts | 137° |
| 2026-05-01 14:23 | 43.87376 | 10.39861 | 37194 ft | 502 kts | 137° |
| 2026-05-01 14:23 | 43.84826 | 10.43144 | 37440 ft | 502 kts | 137° |
| 2026-05-01 14:24 | 43.82259 | 10.46375 | 37662 ft | 503 kts | 139° |
| 2026-05-01 14:24 | 43.79540 | 10.49396 | 37846 ft | 504 kts | 144° |
| 2026-05-01 14:24 | 43.76628 | 10.52160 | 38024 ft | 504 kts | 149° |
| 2026-05-01 14:24 | 43.73605 | 10.54574 | 38201 ft | 505 kts | 153° |
| 2026-05-01 14:25 | 43.70428 | 10.56676 | 38380 ft | 505 kts | 158° |
| 2026-05-01 14:25 | 43.67180 | 10.58417 | 38562 ft | 504 kts | 163° |
| 2026-05-01 14:25 | 43.63869 | 10.59953 | 38743 ft | 505 kts | 164° |
| 2026-05-01 14:25 | 43.60557 | 10.61452 | 38914 ft | 506 kts | 164° |
| 2026-05-01 14:26 | 43.57191 | 10.62977 | 39079 ft | 507 kts | 163° |
| 2026-05-01 14:26 | 43.50539 | 10.66021 | 39286 ft | 510 kts | 164° |
| 2026-05-01 14:27 | 43.43800 | 10.69127 | 39292 ft | 510 kts | 164° |
| 2026-05-01 14:27 | 43.37115 | 10.72208 | 39292 ft | 510 kts | 164° |
| 2026-05-01 14:28 | 43.27092 | 10.76817 | 39292 ft | 510 kts | 164° |
| 2026-05-01 14:28 | 43.20350 | 10.79907 | 39293 ft | 510 kts | 164° |
| 2026-05-01 14:29 | 43.13626 | 10.82983 | 39293 ft | 512 kts | 164° |
| 2026-05-01 14:30 | 43.03404 | 10.87640 | 39293 ft | 526 kts | 164° |
| 2026-05-01 14:30 | 42.99920 | 10.89224 | 39293 ft | 530 kts | 163° |
| 2026-05-01 14:31 | 42.89377 | 10.94004 | 39291 ft | 534 kts | 163° |
| 2026-05-01 14:31 | 42.82321 | 10.97201 | 39290 ft | 536 kts | 162° |
| 2026-05-01 14:32 | 42.75279 | 11.00385 | 39291 ft | 538 kts | 162° |
| 2026-05-01 14:32 | 42.68122 | 11.03608 | 39291 ft | 541 kts | 162° |
| 2026-05-01 14:33 | 42.61035 | 11.06800 | 39292 ft | 542 kts | 162° |
| 2026-05-01 14:33 | 42.53870 | 11.10023 | 39292 ft | 542 kts | 162° |
| 2026-05-01 14:34 | 42.46758 | 11.13214 | 39292 ft | 542 kts | 162° |
| 2026-05-01 14:34 | 42.39624 | 11.16405 | 39292 ft | 542 kts | 162° |
| 2026-05-01 14:35 | 42.32477 | 11.19593 | 39293 ft | 542 kts | 162° |
| 2026-05-01 14:35 | 42.25322 | 11.22778 | 39293 ft | 542 kts | 162° |
| 2026-05-01 14:36 | 42.18181 | 11.25950 | 39293 ft | 542 kts | 162° |
| 2026-05-01 14:36 | 42.11059 | 11.29104 | 39293 ft | 542 kts | 162° |
| 2026-05-01 14:37 | 42.03911 | 11.32264 | 39290 ft | 542 kts | 162° |
| 2026-05-01 14:37 | 41.96766 | 11.35414 | 39282 ft | 542 kts | 162° |
| 2026-05-01 14:38 | 41.89617 | 11.38559 | 39268 ft | 542 kts | 162° |
| 2026-05-01 14:38 | 41.82448 | 11.41704 | 39245 ft | 542 kts | 162° |
| 2026-05-01 14:39 | 41.75309 | 11.44830 | 39219 ft | 542 kts | 162° |
| 2026-05-01 14:39 | 41.68174 | 11.47946 | 39199 ft | 542 kts | 162° |
| 2026-05-01 14:40 | 41.61002 | 11.51071 | 39190 ft | 542 kts | 162° |
| 2026-05-01 14:40 | 41.53884 | 11.54165 | 39187 ft | 542 kts | 162° |
| 2026-05-01 14:41 | 41.46726 | 11.57270 | 39186 ft | 542 kts | 162° |
| 2026-05-01 14:41 | 41.39585 | 11.60361 | 39186 ft | 542 kts | 162° |
| 2026-05-01 14:42 | 41.32410 | 11.63459 | 39186 ft | 542 kts | 162° |
| 2026-05-01 14:42 | 41.25266 | 11.66536 | 39185 ft | 542 kts | 163° |
| 2026-05-01 14:43 | 41.18073 | 11.69629 | 39177 ft | 542 kts | 163° |
| 2026-05-01 14:43 | 41.10958 | 11.72673 | 39166 ft | 542 kts | 163° |
| 2026-05-01 14:44 | 41.03793 | 11.75731 | 39161 ft | 542 kts | 163° |
| 2026-05-01 14:44 | 40.93056 | 11.80313 | 39160 ft | 542 kts | 162° |
| 2026-05-01 14:45 | 40.82405 | 11.85094 | 39158 ft | 542 kts | 159° |
| 2026-05-01 14:46 | 40.75324 | 11.88611 | 39159 ft | 542 kts | 159° |
| 2026-05-01 14:46 | 40.64762 | 11.93850 | 39160 ft | 542 kts | 159° |
| 2026-05-01 14:47 | 40.57748 | 11.97311 | 39160 ft | 542 kts | 159° |
| 2026-05-01 14:48 | 40.47145 | 12.02521 | 39160 ft | 542 kts | 159° |
| 2026-05-01 14:48 | 40.36636 | 12.07671 | 39160 ft | 542 kts | 159° |
| 2026-05-01 14:49 | 40.22483 | 12.14575 | 39160 ft | 542 kts | 159° |
| 2026-05-01 14:50 | 40.08387 | 12.21423 | 39160 ft | 542 kts | 159° |
| 2026-05-01 14:51 | 39.97837 | 12.26530 | 39160 ft | 542 kts | 159° |
| 2026-05-01 14:52 | 39.87226 | 12.31646 | 39156 ft | 542 kts | 159° |
| 2026-05-01 14:53 | 39.76558 | 12.36775 | 39159 ft | 542 kts | 159° |
| 2026-05-01 14:53 | 39.69518 | 12.40150 | 39160 ft | 542 kts | 159° |
| 2026-05-01 14:54 | 39.62435 | 12.43538 | 39160 ft | 542 kts | 159° |
| 2026-05-01 14:54 | 39.55403 | 12.46894 | 39160 ft | 542 kts | 159° |
| 2026-05-01 14:55 | 39.48356 | 12.50249 | 39160 ft | 542 kts | 159° |
| 2026-05-01 14:55 | 39.41298 | 12.53604 | 39160 ft | 542 kts | 159° |
| 2026-05-01 14:56 | 39.34216 | 12.56963 | 39160 ft | 542 kts | 159° |
| 2026-05-01 14:56 | 39.27162 | 12.60301 | 39160 ft | 542 kts | 159° |
| 2026-05-01 14:57 | 39.20086 | 12.63642 | 39160 ft | 542 kts | 159° |
| 2026-05-01 14:57 | 39.09500 | 12.68628 | 39159 ft | 542 kts | 160° |
| 2026-05-01 14:58 | 39.02402 | 12.71960 | 39160 ft | 542 kts | 160° |
| 2026-05-01 14:58 | 38.95369 | 12.75251 | 39160 ft | 543 kts | 160° |
| 2026-05-01 14:59 | 38.88261 | 12.78572 | 39156 ft | 542 kts | 159° |
| 2026-05-01 14:59 | 38.81175 | 12.81882 | 39159 ft | 542 kts | 159° |
| 2026-05-01 15:00 | 38.70597 | 12.86811 | 39160 ft | 542 kts | 159° |
| 2026-05-01 15:01 | 38.63500 | 12.90105 | 39160 ft | 542 kts | 159° |
| 2026-05-01 15:01 | 38.56439 | 12.93376 | 39160 ft | 542 kts | 159° |
| 2026-05-01 15:02 | 38.49364 | 12.96645 | 39160 ft | 542 kts | 159° |
| 2026-05-01 15:02 | 38.42293 | 12.99906 | 39159 ft | 543 kts | 159° |
| 2026-05-01 15:03 | 38.35188 | 13.03176 | 39159 ft | 546 kts | 159° |
| 2026-05-01 15:03 | 38.28054 | 13.06452 | 39159 ft | 547 kts | 159° |
| 2026-05-01 15:04 | 38.20899 | 13.09732 | 38773 ft | 543 kts | 159° |
| 2026-05-01 15:04 | 38.17386 | 13.11340 | 38159 ft | 544 kts | 159° |
| 2026-05-01 15:04 | 38.13828 | 13.12967 | 37452 ft | 547 kts | 159° |
| 2026-05-01 15:04 | 38.10280 | 13.14587 | 36534 ft | 546 kts | 158° |
| 2026-05-01 15:05 | 38.06701 | 13.16219 | 35255 ft | 547 kts | 158° |
| 2026-05-01 15:05 | 38.03169 | 13.17861 | 33861 ft | 549 kts | 156° |
| 2026-05-01 15:05 | 37.99625 | 13.19697 | 32363 ft | 551 kts | 155° |
| 2026-05-01 15:05 | 37.96128 | 13.21551 | 31252 ft | 544 kts | 155° |
| 2026-05-01 15:06 | 37.92706 | 13.23368 | 30819 ft | 533 kts | 155° |
| 2026-05-01 15:06 | 37.89328 | 13.25161 | 30443 ft | 534 kts | 155° |
| 2026-05-01 15:06 | 37.85923 | 13.26965 | 29896 ft | 534 kts | 155° |
| 2026-05-01 15:06 | 37.82480 | 13.28785 | 29257 ft | 535 kts | 155° |
| 2026-05-01 15:07 | 37.79086 | 13.30574 | 28631 ft | 534 kts | 155° |
| 2026-05-01 15:07 | 37.75663 | 13.32376 | 27994 ft | 534 kts | 155° |
| 2026-05-01 15:07 | 37.72257 | 13.34166 | 27351 ft | 533 kts | 156° |
| 2026-05-01 15:07 | 37.68859 | 13.35949 | 26824 ft | 529 kts | 156° |
| 2026-05-01 15:08 | 37.65463 | 13.37731 | 26449 ft | 522 kts | 156° |
| 2026-05-01 15:08 | 37.62151 | 13.39465 | 26062 ft | 515 kts | 156° |
| 2026-05-01 15:08 | 37.58872 | 13.41181 | 25662 ft | 509 kts | 156° |
| 2026-05-01 15:08 | 37.55636 | 13.42873 | 25256 ft | 504 kts | 156° |
| 2026-05-01 15:09 | 37.52443 | 13.44542 | 24855 ft | 498 kts | 156° |
| 2026-05-01 15:09 | 37.49264 | 13.46201 | 24448 ft | 493 kts | 156° |
| 2026-05-01 15:09 | 37.46117 | 13.47843 | 24046 ft | 489 kts | 156° |
| 2026-05-01 15:09 | 37.43021 | 13.49457 | 23648 ft | 484 kts | 156° |
| 2026-05-01 15:10 | 37.39944 | 13.51059 | 23252 ft | 480 kts | 156° |
| 2026-05-01 15:10 | 37.33846 | 13.54230 | 22456 ft | 471 kts | 156° |
| 2026-05-01 15:10 | 37.30793 | 13.55815 | 22048 ft | 468 kts | 156° |
| 2026-05-01 15:11 | 37.27818 | 13.57357 | 21648 ft | 464 kts | 156° |
| 2026-05-01 15:11 | 37.21944 | 13.60383 | 20860 ft | 457 kts | 157° |
| 2026-05-01 15:11 | 37.18969 | 13.61912 | 20459 ft | 453 kts | 157° |
| 2026-05-01 15:12 | 37.16059 | 13.63408 | 20069 ft | 450 kts | 157° |
| 2026-05-01 15:12 | 37.10331 | 13.66353 | 19282 ft | 443 kts | 158° |
| 2026-05-01 15:12 | 37.07508 | 13.67810 | 18883 ft | 440 kts | 158° |
| 2026-05-01 15:13 | 36.99090 | 13.72150 | 17659 ft | 433 kts | 158° |
| 2026-05-01 15:14 | 36.93545 | 13.75001 | 16847 ft | 428 kts | 158° |
| 2026-05-01 15:14 | 36.90798 | 13.76410 | 16449 ft | 425 kts | 158° |
| 2026-05-01 15:14 | 36.85398 | 13.79178 | 15658 ft | 419 kts | 159° |
| 2026-05-01 15:15 | 36.80025 | 13.81928 | 14867 ft | 413 kts | 159° |
| 2026-05-01 15:15 | 36.74780 | 13.84609 | 14101 ft | 407 kts | 159° |
| 2026-05-01 15:16 | 36.69578 | 13.87265 | 13338 ft | 401 kts | 159° |
| 2026-05-01 15:16 | 36.64451 | 13.89879 | 12579 ft | 395 kts | 159° |
| 2026-05-01 15:17 | 36.59401 | 13.92450 | 11839 ft | 389 kts | 159° |
| 2026-05-01 15:18 | 36.51981 | 13.96215 | 10717 ft | 382 kts | 158° |
| 2026-05-01 15:18 | 36.49568 | 13.97439 | 10551 ft | 372 kts | 158° |
| 2026-05-01 15:19 | 36.42696 | 14.00921 | 10306 ft | 339 kts | 158° |
| 2026-05-01 15:19 | 36.38473 | 14.03057 | 10191 ft | 318 kts | 158° |
| 2026-05-01 15:19 | 36.36436 | 14.04086 | 10147 ft | 308 kts | 158° |
| 2026-05-01 15:20 | 36.32538 | 14.06052 | 9767 ft | 302 kts | 157° |
| 2026-05-01 15:20 | 36.30607 | 14.07024 | 9514 ft | 301 kts | 157° |
| 2026-05-01 15:20 | 36.28680 | 14.07996 | 9272 ft | 299 kts | 156° |
| 2026-05-01 15:21 | 36.26765 | 14.08960 | 9036 ft | 297 kts | 156° |
| 2026-05-01 15:21 | 36.24858 | 14.09921 | 8802 ft | 295 kts | 156° |
| 2026-05-01 15:21 | 36.22963 | 14.10875 | 8572 ft | 293 kts | 156° |
| 2026-05-01 15:21 | 36.21074 | 14.11825 | 8342 ft | 292 kts | 156° |
| 2026-05-01 15:22 | 36.17345 | 14.13700 | 7888 ft | 288 kts | 155° |
| 2026-05-01 15:22 | 36.15483 | 14.14636 | 7660 ft | 286 kts | 155° |
| 2026-05-01 15:22 | 36.13662 | 14.15550 | 7436 ft | 285 kts | 155° |
| 2026-05-01 15:23 | 36.11804 | 14.16482 | 7210 ft | 283 kts | 155° |
| 2026-05-01 15:23 | 36.10004 | 14.17385 | 6990 ft | 281 kts | 155° |
| 2026-05-01 15:23 | 36.08198 | 14.18290 | 6770 ft | 279 kts | 154° |
| 2026-05-01 15:23 | 36.06387 | 14.19197 | 6547 ft | 278 kts | 154° |
| 2026-05-01 15:24 | 36.04597 | 14.20058 | 6325 ft | 277 kts | 159° |
| 2026-05-01 15:24 | 36.02731 | 14.20625 | 6089 ft | 276 kts | 168° |
| 2026-05-01 15:24 | 36.00839 | 14.20889 | 5803 ft | 269 kts | 172° |
| 2026-05-01 15:24 | 35.99022 | 14.21061 | 5629 ft | 258 kts | 173° |
| 2026-05-01 15:25 | 35.97224 | 14.21224 | 5494 ft | 259 kts | 173° |
| 2026-05-01 15:25 | 35.95424 | 14.21393 | 5295 ft | 257 kts | 172° |
| 2026-05-01 15:25 | 35.93644 | 14.21566 | 5089 ft | 255 kts | 172° |
| 2026-05-01 15:25 | 35.91900 | 14.21740 | 4892 ft | 254 kts | 172° |
| 2026-05-01 15:26 | 35.90143 | 14.21918 | 4700 ft | 252 kts | 172° |
| 2026-05-01 15:26 | 35.88435 | 14.22090 | 4426 ft | 243 kts | 171° |
| 2026-05-01 15:26 | 35.86785 | 14.22255 | 4260 ft | 229 kts | 171° |
| 2026-05-01 15:26 | 35.85241 | 14.22411 | 4116 ft | 219 kts | 171° |
| 2026-05-01 15:27 | 35.83750 | 14.22561 | 3975 ft | 206 kts | 171° |
| 2026-05-01 15:27 | 35.82335 | 14.22706 | 3816 ft | 204 kts | 170° |
| 2026-05-01 15:27 | 35.80937 | 14.22852 | 3652 ft | 203 kts | 170° |
| 2026-05-01 15:28 | 35.78124 | 14.23143 | 3326 ft | 201 kts | 170° |
| 2026-05-01 15:28 | 35.76733 | 14.23285 | 3176 ft | 199 kts | 170° |
| 2026-05-01 15:28 | 35.75389 | 14.23594 | 3162 ft | 193 kts | 150° |
| 2026-05-01 15:29 | 35.73913 | 14.25947 | 3108 ft | 162 kts | 93° |
| 2026-05-01 15:29 | 35.73994 | 14.27262 | 3097 ft | 149 kts | 70° |
| 2026-05-01 15:29 | 35.75069 | 14.29429 | 3100 ft | 148 kts | 53° |
| 2026-05-01 15:30 | 35.76288 | 14.31488 | 3039 ft | 148 kts | 53° |
| 2026-05-01 15:31 | 35.78702 | 14.35611 | 2291 ft | 144 kts | 55° |
| 2026-05-01 15:31 | 35.79789 | 14.37474 | 1942 ft | 129 kts | 55° |
| 2026-05-01 15:32 | 35.80836 | 14.39275 | 1624 ft | 129 kts | 56° |
| 2026-05-01 15:32 | 35.81882 | 14.41075 | 1283 ft | 129 kts | 56° |
| 2026-05-01 15:33 | 35.83445 | 14.43778 | 832 ft | 128 kts | 57° |
| 2026-05-01 15:34 | 35.85010 | 14.46459 | 319 ft | 121 kts | 57° |